Terminal Aerodrome Forecast
Issued by NWS Grand Forks, ND

Home | Current Version | Previous Version | Text Only | Print | Product List | Glossary On
Versions: 1 2 3 4 5 6 7 8 9 10 11 12 13 14 15 16 17 18 19 20 21 22 23 24
000
FTUS43 KFGF 240521
TAFGFK
TAF
KGFK 240521Z 2406/2506 22010KT P6SM FEW090 BKN200
     FM241200 19008KT P6SM -SHRA OVC070
     FM241400 25014KT P6SM -SHRA BKN030
     FM241500 27021G32KT P6SM -SHRA BKN030
     FM241600 32021G32KT P6SM -SHRA BKN070
     FM241700 29018G27KT P6SM FEW140
     FM242300 30012KT P6SM FEW200=

USA.gov is the U.S. government's official web portal to all federal, state and local government web resources and services.